sensor_id;sensor_type;location;lat;lon;timestamp;P1;durP1;ratioP1;P2;durP2;ratioP2
2892;SDS011;1456;51.840;12.184;2023-07-13T00:02:16;6.43;;;6.40;;
2892;SDS011;1456;51.840;12.184;2023-07-13T00:04:41;7.10;;;7.00;;
2892;SDS011;1456;51.840;12.184;2023-07-13T00:07:07;7.43;;;7.23;;
2892;SDS011;1456;51.840;12.184;2023-07-13T00:09:33;6.30;;;6.20;;
2892;SDS011;1456;51.840;12.184;2023-07-13T00:11:59;6.80;;;6.70;;
2892;SDS011;1456;51.840;12.184;2023-07-13T00:14:26;7.70;;;7.50;;
2892;SDS011;1456;51.840;12.184;2023-07-13T00:16:53;6.37;;;6.27;;
2892;SDS011;1456;51.840;12.184;2023-07-13T00:19:18;6.67;;;6.47;;
2892;SDS011;1456;51.840;12.184;2023-07-13T00:21:45;6.67;;;6.57;;
2892;SDS011;1456;51.840;12.184;2023-07-13T00:24:11;7.57;;;7.37;;
2892;SDS011;1456;51.840;12.184;2023-07-13T00:26:39;8.33;;;8.23;;
2892;SDS011;1456;51.840;12.184;2023-07-13T00:29:06;8.73;;;8.53;;
2892;SDS011;1456;51.840;12.184;2023-07-13T00:31:33;7.77;;;7.67;;
2892;SDS011;1456;51.840;12.184;2023-07-13T00:33:59;6.73;;;6.63;;
2892;SDS011;1456;51.840;12.184;2023-07-13T00:36:25;6.40;;;6.30;;
2892;SDS011;1456;51.840;12.184;2023-07-13T00:38:51;5.63;;;5.63;;
2892;SDS011;1456;51.840;12.184;2023-07-13T00:41:17;6.97;;;6.57;;
2892;SDS011;1456;51.840;12.184;2023-07-13T00:43:43;6.00;;;5.90;;
2892;SDS011;1456;51.840;12.184;2023-07-13T00:48:42;6.30;;;6.20;;
2892;SDS011;1456;51.840;12.184;2023-07-13T00:51:11;7.67;;;7.30;;
2892;SDS011;1456;51.840;12.184;2023-07-13T00:53:38;6.73;;;6.63;;
2892;SDS011;1456;51.840;12.184;2023-07-13T00:56:04;8.20;;;7.90;;
2892;SDS011;1456;51.840;12.184;2023-07-13T00:58:31;6.10;;;6.00;;
2892;SDS011;1456;51.840;12.184;2023-07-13T01:00:59;5.90;;;5.80;;
2892;SDS011;1456;51.840;12.184;2023-07-13T01:03:24;5.67;;;5.57;;
2892;SDS011;1456;51.840;12.184;2023-07-13T01:05:50;5.77;;;5.67;;
2892;SDS011;1456;51.840;12.184;2023-07-13T01:08:18;5.87;;;5.77;;
2892;SDS011;1456;51.840;12.184;2023-07-13T01:10:52;5.70;;;5.60;;
2892;SDS011;1456;51.840;12.184;2023-07-13T01:13:18;6.13;;;6.03;;
2892;SDS011;1456;51.840;12.184;2023-07-13T01:15:49;5.20;;;5.20;;
2892;SDS011;1456;51.840;12.184;2023-07-13T01:18:21;6.57;;;6.47;;
2892;SDS011;1456;51.840;12.184;2023-07-13T01:20:56;7.37;;;7.07;;
2892;SDS011;1456;51.840;12.184;2023-07-13T01:23:27;5.80;;;5.80;;
2892;SDS011;1456;51.840;12.184;2023-07-13T01:25:54;6.17;;;6.07;;
2892;SDS011;1456;51.840;12.184;2023-07-13T01:28:22;6.10;;;6.00;;
2892;SDS011;1456;51.840;12.184;2023-07-13T01:30:52;5.43;;;5.40;;
2892;SDS011;1456;51.840;12.184;2023-07-13T01:33:18;5.83;;;5.73;;
2892;SDS011;1456;51.840;12.184;2023-07-13T01:35:44;5.33;;;5.23;;
2892;SDS011;1456;51.840;12.184;2023-07-13T01:38:11;5.43;;;5.33;;
2892;SDS011;1456;51.840;12.184;2023-07-13T01:40:40;5.53;;;5.43;;
2892;SDS011;1456;51.840;12.184;2023-07-13T01:43:05;5.50;;;5.40;;
2892;SDS011;1456;51.840;12.184;2023-07-13T01:45:31;5.53;;;5.33;;
2892;SDS011;1456;51.840;12.184;2023-07-13T01:47:57;6.17;;;6.07;;
2892;SDS011;1456;51.840;12.184;2023-07-13T01:50:23;4.37;;;4.37;;
2892;SDS011;1456;51.840;12.184;2023-07-13T01:52:49;4.43;;;4.37;;
2892;SDS011;1456;51.840;12.184;2023-07-13T01:55:15;3.63;;;3.53;;
2892;SDS011;1456;51.840;12.184;2023-07-13T01:57:40;3.40;;;3.40;;
2892;SDS011;1456;51.840;12.184;2023-07-13T02:00:07;3.63;;;3.53;;
2892;SDS011;1456;51.840;12.184;2023-07-13T02:02:33;2.57;;;2.57;;
2892;SDS011;1456;51.840;12.184;2023-07-13T02:04:59;3.13;;;3.03;;
2892;SDS011;1456;51.840;12.184;2023-07-13T02:07:25;3.00;;;2.90;;
2892;SDS011;1456;51.840;12.184;2023-07-13T02:09:50;3.20;;;3.20;;
2892;SDS011;1456;51.840;12.184;2023-07-13T02:12:16;2.70;;;2.70;;
2892;SDS011;1456;51.840;12.184;2023-07-13T02:14:42;3.20;;;3.10;;
2892;SDS011;1456;51.840;12.184;2023-07-13T02:17:08;2.90;;;2.90;;
2892;SDS011;1456;51.840;12.184;2023-07-13T02:19:35;3.57;;;3.47;;
2892;SDS011;1456;51.840;12.184;2023-07-13T02:22:01;3.10;;;3.10;;
2892;SDS011;1456;51.840;12.184;2023-07-13T02:24:27;3.00;;;2.90;;
2892;SDS011;1456;51.840;12.184;2023-07-13T02:26:53;3.87;;;3.77;;
2892;SDS011;1456;51.840;12.184;2023-07-13T02:29:19;3.17;;;3.07;;
2892;SDS011;1456;51.840;12.184;2023-07-13T02:31:45;3.47;;;3.23;;
2892;SDS011;1456;51.840;12.184;2023-07-13T02:34:10;3.60;;;3.50;;
2892;SDS011;1456;51.840;12.184;2023-07-13T02:36:36;4.03;;;3.93;;
2892;SDS011;1456;51.840;12.184;2023-07-13T02:39:02;4.37;;;4.20;;
2892;SDS011;1456;51.840;12.184;2023-07-13T02:41:30;3.50;;;3.40;;
2892;SDS011;1456;51.840;12.184;2023-07-13T02:43:57;3.27;;;3.07;;
2892;SDS011;1456;51.840;12.184;2023-07-13T02:46:28;2.83;;;2.83;;
2892;SDS011;1456;51.840;12.184;2023-07-13T02:48:57;4.20;;;4.10;;
2892;SDS011;1456;51.840;12.184;2023-07-13T02:51:23;3.33;;;3.30;;
2892;SDS011;1456;51.840;12.184;2023-07-13T02:53:48;3.50;;;3.40;;
2892;SDS011;1456;51.840;12.184;2023-07-13T02:56:14;2.50;;;2.50;;
2892;SDS011;1456;51.840;12.184;2023-07-13T02:58:40;4.07;;;3.87;;
2892;SDS011;1456;51.840;12.184;2023-07-13T03:01:06;3.00;;;2.90;;
2892;SDS011;1456;51.840;12.184;2023-07-13T03:03:35;3.37;;;3.33;;
2892;SDS011;1456;51.840;12.184;2023-07-13T03:06:02;3.40;;;3.20;;
2892;SDS011;1456;51.840;12.184;2023-07-13T03:08:30;2.90;;;2.90;;
2892;SDS011;1456;51.840;12.184;2023-07-13T03:10:59;3.20;;;3.10;;
2892;SDS011;1456;51.840;12.184;2023-07-13T03:13:25;3.00;;;2.90;;
2892;SDS011;1456;51.840;12.184;2023-07-13T03:15:51;5.23;;;4.93;;
2892;SDS011;1456;51.840;12.184;2023-07-13T03:18:16;2.23;;;2.13;;
2892;SDS011;1456;51.840;12.184;2023-07-13T03:20:42;2.30;;;2.30;;
2892;SDS011;1456;51.840;12.184;2023-07-13T03:23:08;2.83;;;2.63;;
2892;SDS011;1456;51.840;12.184;2023-07-13T03:25:34;2.43;;;2.33;;
2892;SDS011;1456;51.840;12.184;2023-07-13T03:28:00;3.10;;;3.00;;
2892;SDS011;1456;51.840;12.184;2023-07-13T03:30:25;2.17;;;2.17;;
2892;SDS011;1456;51.840;12.184;2023-07-13T03:32:51;2.67;;;2.57;;
2892;SDS011;1456;51.840;12.184;2023-07-13T03:35:17;2.53;;;2.43;;
2892;SDS011;1456;51.840;12.184;2023-07-13T03:37:42;1.60;;;1.60;;
2892;SDS011;1456;51.840;12.184;2023-07-13T03:40:08;1.53;;;1.53;;
2892;SDS011;1456;51.840;12.184;2023-07-13T03:42:35;1.83;;;1.83;;
2892;SDS011;1456;51.840;12.184;2023-07-13T03:45:00;1.70;;;1.60;;
2892;SDS011;1456;51.840;12.184;2023-07-13T03:47:26;1.30;;;1.30;;
2892;SDS011;1456;51.840;12.184;2023-07-13T03:49:52;1.90;;;1.80;;
2892;SDS011;1456;51.840;12.184;2023-07-13T03:52:18;2.47;;;2.27;;
2892;SDS011;1456;51.840;12.184;2023-07-13T03:54:44;2.67;;;2.47;;
2892;SDS011;1456;51.840;12.184;2023-07-13T03:57:09;1.73;;;1.63;;
2892;SDS011;1456;51.840;12.184;2023-07-13T03:59:35;2.60;;;2.20;;
2892;SDS011;1456;51.840;12.184;2023-07-13T04:02:01;1.90;;;1.90;;
2892;SDS011;1456;51.840;12.184;2023-07-13T04:04:29;2.00;;;1.90;;
2892;SDS011;1456;51.840;12.184;2023-07-13T04:06:55;1.60;;;1.60;;
2892;SDS011;1456;51.840;12.184;2023-07-13T04:09:23;1.60;;;1.60;;
2892;SDS011;1456;51.840;12.184;2023-07-13T04:11:49;2.03;;;2.03;;
2892;SDS011;1456;51.840;12.184;2023-07-13T04:14:15;2.37;;;2.37;;
2892;SDS011;1456;51.840;12.184;2023-07-13T04:16:42;2.10;;;2.10;;
2892;SDS011;1456;51.840;12.184;2023-07-13T04:19:08;1.90;;;1.80;;
2892;SDS011;1456;51.840;12.184;2023-07-13T04:21:35;1.40;;;1.40;;
2892;SDS011;1456;51.840;12.184;2023-07-13T04:24:01;1.27;;;1.27;;
2892;SDS011;1456;51.840;12.184;2023-07-13T04:26:28;2.80;;;2.33;;
2892;SDS011;1456;51.840;12.184;2023-07-13T04:28:54;2.73;;;2.63;;
2892;SDS011;1456;51.840;12.184;2023-07-13T04:31:21;2.53;;;2.43;;
2892;SDS011;1456;51.840;12.184;2023-07-13T04:33:47;2.47;;;2.47;;
2892;SDS011;1456;51.840;12.184;2023-07-13T04:36:13;3.77;;;3.50;;
2892;SDS011;1456;51.840;12.184;2023-07-13T04:38:41;3.87;;;3.67;;
2892;SDS011;1456;51.840;12.184;2023-07-13T04:41:07;3.37;;;3.27;;
2892;SDS011;1456;51.840;12.184;2023-07-13T04:43:33;4.30;;;3.33;;
2892;SDS011;1456;51.840;12.184;2023-07-13T04:46:18;2.50;;;2.50;;
2892;SDS011;1456;51.840;12.184;2023-07-13T04:48:44;2.40;;;2.40;;
2892;SDS011;1456;51.840;12.184;2023-07-13T04:51:10;2.37;;;2.30;;
2892;SDS011;1456;51.840;12.184;2023-07-13T04:53:35;2.13;;;2.13;;
2892;SDS011;1456;51.840;12.184;2023-07-13T04:56:01;2.50;;;2.50;;
2892;SDS011;1456;51.840;12.184;2023-07-13T04:58:28;2.40;;;2.37;;
2892;SDS011;1456;51.840;12.184;2023-07-13T05:00:59;4.77;;;4.47;;
2892;SDS011;1456;51.840;12.184;2023-07-13T05:03:26;2.50;;;2.40;;
2892;SDS011;1456;51.840;12.184;2023-07-13T05:05:55;2.50;;;2.50;;
2892;SDS011;1456;51.840;12.184;2023-07-13T05:08:22;3.10;;;3.00;;
2892;SDS011;1456;51.840;12.184;2023-07-13T05:10:48;2.67;;;2.63;;
2892;SDS011;1456;51.840;12.184;2023-07-13T05:13:14;2.63;;;2.53;;
2892;SDS011;1456;51.840;12.184;2023-07-13T05:15:40;3.53;;;3.43;;
2892;SDS011;1456;51.840;12.184;2023-07-13T05:18:05;3.57;;;3.47;;
2892;SDS011;1456;51.840;12.184;2023-07-13T05:20:31;3.70;;;3.60;;
2892;SDS011;1456;51.840;12.184;2023-07-13T05:22:57;3.50;;;3.40;;
2892;SDS011;1456;51.840;12.184;2023-07-13T05:25:22;3.10;;;3.10;;
2892;SDS011;1456;51.840;12.184;2023-07-13T05:27:48;3.83;;;3.63;;
2892;SDS011;1456;51.840;12.184;2023-07-13T05:30:14;3.20;;;3.20;;
2892;SDS011;1456;51.840;12.184;2023-07-13T05:32:40;3.43;;;3.33;;
2892;SDS011;1456;51.840;12.184;2023-07-13T05:35:06;5.23;;;4.40;;
2892;SDS011;1456;51.840;12.184;2023-07-13T05:37:32;5.07;;;4.67;;
2892;SDS011;1456;51.840;12.184;2023-07-13T05:39:57;4.97;;;4.67;;
2892;SDS011;1456;51.840;12.184;2023-07-13T05:42:23;5.47;;;5.00;;
2892;SDS011;1456;51.840;12.184;2023-07-13T05:44:49;5.07;;;4.97;;
2892;SDS011;1456;51.840;12.184;2023-07-13T05:47:15;5.33;;;4.40;;
2892;SDS011;1456;51.840;12.184;2023-07-13T05:49:40;4.50;;;4.43;;
2892;SDS011;1456;51.840;12.184;2023-07-13T05:52:06;5.37;;;5.27;;
2892;SDS011;1456;51.840;12.184;2023-07-13T05:54:32;5.73;;;5.53;;
2892;SDS011;1456;51.840;12.184;2023-07-13T05:56:58;5.33;;;5.33;;
2892;SDS011;1456;51.840;12.184;2023-07-13T05:59:24;4.57;;;4.53;;
2892;SDS011;1456;51.840;12.184;2023-07-13T06:01:50;4.50;;;4.50;;
2892;SDS011;1456;51.840;12.184;2023-07-13T06:04:17;4.80;;;4.70;;
2892;SDS011;1456;51.840;12.184;2023-07-13T06:06:43;5.53;;;5.33;;
2892;SDS011;1456;51.840;12.184;2023-07-13T06:09:09;5.20;;;5.20;;
2892;SDS011;1456;51.840;12.184;2023-07-13T06:11:35;6.20;;;6.10;;
2892;SDS011;1456;51.840;12.184;2023-07-13T06:14:00;6.37;;;6.27;;
2892;SDS011;1456;51.840;12.184;2023-07-13T06:16:27;6.23;;;6.13;;
2892;SDS011;1456;51.840;12.184;2023-07-13T06:18:53;7.10;;;6.90;;
2892;SDS011;1456;51.840;12.184;2023-07-13T06:21:19;7.93;;;7.70;;
2892;SDS011;1456;51.840;12.184;2023-07-13T06:23:46;6.40;;;6.30;;
2892;SDS011;1456;51.840;12.184;2023-07-13T06:26:13;7.67;;;7.50;;
2892;SDS011;1456;51.840;12.184;2023-07-13T06:28:39;6.90;;;6.70;;
2892;SDS011;1456;51.840;12.184;2023-07-13T06:31:06;7.97;;;7.70;;
2892;SDS011;1456;51.840;12.184;2023-07-13T06:33:33;6.53;;;6.43;;
2892;SDS011;1456;51.840;12.184;2023-07-13T06:35:59;6.60;;;6.50;;
2892;SDS011;1456;51.840;12.184;2023-07-13T06:38:24;6.97;;;6.87;;
2892;SDS011;1456;51.840;12.184;2023-07-13T06:40:50;7.07;;;6.83;;
2892;SDS011;1456;51.840;12.184;2023-07-13T06:43:16;7.43;;;7.33;;
2892;SDS011;1456;51.840;12.184;2023-07-13T06:45:46;8.43;;;8.23;;
2892;SDS011;1456;51.840;12.184;2023-07-13T06:48:17;7.40;;;7.30;;
2892;SDS011;1456;51.840;12.184;2023-07-13T06:50:44;6.80;;;6.70;;
2892;SDS011;1456;51.840;12.184;2023-07-13T06:53:12;8.10;;;8.00;;
2892;SDS011;1456;51.840;12.184;2023-07-13T06:55:38;8.67;;;8.47;;
2892;SDS011;1456;51.840;12.184;2023-07-13T06:58:04;8.53;;;8.33;;
2892;SDS011;1456;51.840;12.184;2023-07-13T07:00:31;8.20;;;8.10;;
2892;SDS011;1456;51.840;12.184;2023-07-13T07:02:57;7.10;;;7.00;;
2892;SDS011;1456;51.840;12.184;2023-07-13T07:05:22;7.23;;;7.13;;
2892;SDS011;1456;51.840;12.184;2023-07-13T07:07:51;7.03;;;6.90;;
2892;SDS011;1456;51.840;12.184;2023-07-13T07:10:19;7.53;;;7.43;;
2892;SDS011;1456;51.840;12.184;2023-07-13T07:12:45;7.50;;;7.40;;
2892;SDS011;1456;51.840;12.184;2023-07-13T07:15:11;7.30;;;7.20;;
2892;SDS011;1456;51.840;12.184;2023-07-13T07:17:37;7.47;;;7.37;;
2892;SDS011;1456;51.840;12.184;2023-07-13T07:20:03;7.90;;;7.80;;
2892;SDS011;1456;51.840;12.184;2023-07-13T07:22:29;8.17;;;8.07;;
2892;SDS011;1456;51.840;12.184;2023-07-13T07:24:56;8.20;;;8.10;;
2892;SDS011;1456;51.840;12.184;2023-07-13T07:27:22;8.20;;;8.10;;
2892;SDS011;1456;51.840;12.184;2023-07-13T07:29:49;8.43;;;8.33;;
2892;SDS011;1456;51.840;12.184;2023-07-13T07:32:15;8.10;;;8.00;;
2892;SDS011;1456;51.840;12.184;2023-07-13T07:34:42;7.93;;;7.83;;
2892;SDS011;1456;51.840;12.184;2023-07-13T07:37:09;9.97;;;9.77;;
2892;SDS011;1456;51.840;12.184;2023-07-13T07:39:38;9.03;;;8.83;;
2892;SDS011;1456;51.840;12.184;2023-07-13T07:42:04;8.03;;;7.93;;
2892;SDS011;1456;51.840;12.184;2023-07-13T07:44:31;8.97;;;8.87;;
2892;SDS011;1456;51.840;12.184;2023-07-13T07:46:58;9.10;;;8.90;;
2892;SDS011;1456;51.840;12.184;2023-07-13T07:49:24;9.13;;;8.93;;
2892;SDS011;1456;51.840;12.184;2023-07-13T07:51:51;9.57;;;9.47;;
2892;SDS011;1456;51.840;12.184;2023-07-13T07:54:19;9.73;;;9.03;;
2892;SDS011;1456;51.840;12.184;2023-07-13T07:56:46;8.40;;;8.30;;
2892;SDS011;1456;51.840;12.184;2023-07-13T07:59:11;8.70;;;8.60;;
2892;SDS011;1456;51.840;12.184;2023-07-13T08:01:37;8.60;;;8.50;;
2892;SDS011;1456;51.840;12.184;2023-07-13T08:04:03;8.90;;;8.77;;
2892;SDS011;1456;51.840;12.184;2023-07-13T08:06:29;9.93;;;9.83;;
2892;SDS011;1456;51.840;12.184;2023-07-13T08:08:58;9.30;;;9.20;;
2892;SDS011;1456;51.840;12.184;2023-07-13T08:11:24;10.80;;;10.50;;
2892;SDS011;1456;51.840;12.184;2023-07-13T08:13:50;9.53;;;9.33;;
2892;SDS011;1456;51.840;12.184;2023-07-13T08:16:16;10.10;;;9.90;;
2892;SDS011;1456;51.840;12.184;2023-07-13T08:18:42;10.50;;;10.30;;
2892;SDS011;1456;51.840;12.184;2023-07-13T08:21:08;9.67;;;9.50;;
2892;SDS011;1456;51.840;12.184;2023-07-13T08:23:34;9.60;;;9.50;;
2892;SDS011;1456;51.840;12.184;2023-07-13T08:26:00;9.63;;;9.43;;
2892;SDS011;1456;51.840;12.184;2023-07-13T08:28:27;9.60;;;9.40;;
2892;SDS011;1456;51.840;12.184;2023-07-13T08:30:53;10.23;;;10.00;;
2892;SDS011;1456;51.840;12.184;2023-07-13T08:33:20;9.90;;;9.80;;
2892;SDS011;1456;51.840;12.184;2023-07-13T08:35:49;11.30;;;10.07;;
2892;SDS011;1456;51.840;12.184;2023-07-13T08:38:16;8.70;;;8.60;;
2892;SDS011;1456;51.840;12.184;2023-07-13T08:40:42;10.27;;;9.93;;
2892;SDS011;1456;51.840;12.184;2023-07-13T08:43:12;9.30;;;9.20;;
2892;SDS011;1456;51.840;12.184;2023-07-13T08:45:52;9.60;;;9.37;;
2892;SDS011;1456;51.840;12.184;2023-07-13T08:48:44;11.70;;;11.37;;
2892;SDS011;1456;51.840;12.184;2023-07-13T08:57:13;11.07;;;10.60;;
2892;SDS011;1456;51.840;12.184;2023-07-13T08:59:43;9.90;;;9.70;;
2892;SDS011;1456;51.840;12.184;2023-07-13T09:11:05;14.77;;;14.47;;
2892;SDS011;1456;51.840;12.184;2023-07-13T09:16:41;15.20;;;14.60;;
2892;SDS011;1456;51.840;12.184;2023-07-13T09:19:08;16.83;;;16.43;;
2892;SDS011;1456;51.840;12.184;2023-07-13T09:21:44;17.07;;;16.77;;
2892;SDS011;1456;51.840;12.184;2023-07-13T09:24:58;16.27;;;15.87;;
2892;SDS011;1456;51.840;12.184;2023-07-13T09:26:56;16.73;;;16.37;;
2892;SDS011;1456;51.840;12.184;2023-07-13T09:29:30;17.47;;;17.03;;
2892;SDS011;1456;51.840;12.184;2023-07-13T09:32:01;16.57;;;16.20;;
2892;SDS011;1456;51.840;12.184;2023-07-13T09:34:32;14.90;;;14.60;;
2892;SDS011;1456;51.840;12.184;2023-07-13T09:36:58;13.53;;;13.33;;
2892;SDS011;1456;51.840;12.184;2023-07-13T09:39:39;16.50;;;16.00;;
2892;SDS011;1456;51.840;12.184;2023-07-13T09:44:37;15.33;;;15.03;;
2892;SDS011;1456;51.840;12.184;2023-07-13T09:47:15;16.73;;;16.37;;
2892;SDS011;1456;51.840;12.184;2023-07-13T09:49:44;16.00;;;15.70;;
2892;SDS011;1456;51.840;12.184;2023-07-13T09:52:11;17.20;;;16.70;;
2892;SDS011;1456;51.840;12.184;2023-07-13T09:54:39;21.70;;;21.20;;
2892;SDS011;1456;51.840;12.184;2023-07-13T09:57:13;21.77;;;21.27;;
2892;SDS011;1456;51.840;12.184;2023-07-13T09:59:51;20.73;;;20.33;;
2892;SDS011;1456;51.840;12.184;2023-07-13T10:02:31;18.67;;;18.27;;
2892;SDS011;1456;51.840;12.184;2023-07-13T10:05:00;18.47;;;17.97;;
2892;SDS011;1456;51.840;12.184;2023-07-13T10:07:31;20.63;;;20.10;;
2892;SDS011;1456;51.840;12.184;2023-07-13T10:10:12;21.10;;;20.60;;
2892;SDS011;1456;51.840;12.184;2023-07-13T10:12:46;19.80;;;19.30;;
2892;SDS011;1456;51.840;12.184;2023-07-13T10:15:23;18.90;;;18.53;;
2892;SDS011;1456;51.840;12.184;2023-07-13T10:17:51;20.03;;;19.50;;
2892;SDS011;1456;51.840;12.184;2023-07-13T10:20:22;20.10;;;19.70;;
2892;SDS011;1456;51.840;12.184;2023-07-13T10:22:58;19.20;;;18.73;;
2892;SDS011;1456;51.840;12.184;2023-07-13T10:25:33;19.97;;;19.47;;
2892;SDS011;1456;51.840;12.184;2023-07-13T10:28:09;22.53;;;21.73;;
2892;SDS011;1456;51.840;12.184;2023-07-13T10:30:47;19.13;;;18.73;;
2892;SDS011;1456;51.840;12.184;2023-07-13T10:33:15;18.67;;;18.27;;
2892;SDS011;1456;51.840;12.184;2023-07-13T10:35:42;19.20;;;18.80;;
2892;SDS011;1456;51.840;12.184;2023-07-13T10:38:20;20.83;;;20.33;;
2892;SDS011;1456;51.840;12.184;2023-07-13T10:40:58;20.30;;;19.80;;
2892;SDS011;1456;51.840;12.184;2023-07-13T10:43:35;22.60;;;21.70;;
2892;SDS011;1456;51.840;12.184;2023-07-13T10:46:08;20.87;;;20.37;;
2892;SDS011;1456;51.840;12.184;2023-07-13T10:48:38;19.30;;;18.90;;
2892;SDS011;1456;51.840;12.184;2023-07-13T10:51:07;18.40;;;18.10;;
2892;SDS011;1456;51.840;12.184;2023-07-13T10:53:35;17.83;;;17.43;;
2892;SDS011;1456;51.840;12.184;2023-07-13T10:58:44;20.67;;;20.27;;
2892;SDS011;1456;51.840;12.184;2023-07-13T11:01:16;21.30;;;20.80;;
2892;SDS011;1456;51.840;12.184;2023-07-13T11:03:49;19.93;;;19.43;;
2892;SDS011;1456;51.840;12.184;2023-07-13T11:08:59;20.80;;;20.20;;
2892;SDS011;1456;51.840;12.184;2023-07-13T11:11:48;22.13;;;21.30;;
2892;SDS011;1456;51.840;12.184;2023-07-13T11:14:31;20.17;;;19.57;;
2892;SDS011;1456;51.840;12.184;2023-07-13T11:22:46;22.60;;;22.10;;
2892;SDS011;1456;51.840;12.184;2023-07-13T11:27:49;19.63;;;19.23;;
2892;SDS011;1456;51.840;12.184;2023-07-13T11:35:51;21.20;;;20.70;;
2892;SDS011;1456;51.840;12.184;2023-07-13T11:41:57;22.37;;;21.87;;
2892;SDS011;1456;51.840;12.184;2023-07-13T11:44:27;12.50;;;12.30;;
2892;SDS011;1456;51.840;12.184;2023-07-13T11:46:56;10.23;;;10.13;;
2892;SDS011;1456;51.840;12.184;2023-07-13T11:49:26;11.30;;;11.00;;
2892;SDS011;1456;51.840;12.184;2023-07-13T11:51:55;10.87;;;10.67;;
2892;SDS011;1456;51.840;12.184;2023-07-13T11:54:33;10.57;;;10.37;;
2892;SDS011;1456;51.840;12.184;2023-07-13T11:59:49;9.50;;;9.20;;
2892;SDS011;1456;51.840;12.184;2023-07-13T12:02:17;10.67;;;10.47;;
2892;SDS011;1456;51.840;12.184;2023-07-13T12:04:56;9.00;;;8.90;;
2892;SDS011;1456;51.840;12.184;2023-07-13T12:07:22;9.50;;;9.30;;
2892;SDS011;1456;51.840;12.184;2023-07-13T12:09:48;9.70;;;9.60;;
2892;SDS011;1456;51.840;12.184;2023-07-13T12:12:20;9.33;;;9.13;;
2892;SDS011;1456;51.840;12.184;2023-07-13T12:14:51;10.50;;;10.40;;
2892;SDS011;1456;51.840;12.184;2023-07-13T12:17:21;11.20;;;11.00;;
2892;SDS011;1456;51.840;12.184;2023-07-13T12:19:48;10.73;;;10.53;;
2892;SDS011;1456;51.840;12.184;2023-07-13T12:22:16;10.27;;;10.17;;
2892;SDS011;1456;51.840;12.184;2023-07-13T12:24:43;10.47;;;10.27;;
2892;SDS011;1456;51.840;12.184;2023-07-13T12:27:16;10.90;;;10.70;;
2892;SDS011;1456;51.840;12.184;2023-07-13T12:32:31;11.47;;;11.27;;
2892;SDS011;1456;51.840;12.184;2023-07-13T12:35:13;10.80;;;10.60;;
2892;SDS011;1456;51.840;12.184;2023-07-13T12:37:45;10.10;;;10.00;;
2892;SDS011;1456;51.840;12.184;2023-07-13T12:40:15;9.50;;;9.40;;
2892;SDS011;1456;51.840;12.184;2023-07-13T12:42:44;10.50;;;10.30;;
2892;SDS011;1456;51.840;12.184;2023-07-13T12:45:18;10.93;;;10.73;;
2892;SDS011;1456;51.840;12.184;2023-07-13T12:47:52;10.77;;;10.57;;
2892;SDS011;1456;51.840;12.184;2023-07-13T12:50:28;11.73;;;11.43;;
2892;SDS011;1456;51.840;12.184;2023-07-13T12:53:12;10.30;;;10.20;;
2892;SDS011;1456;51.840;12.184;2023-07-13T12:55:44;11.20;;;11.00;;
2892;SDS011;1456;51.840;12.184;2023-07-13T12:58:29;10.33;;;10.23;;
2892;SDS011;1456;51.840;12.184;2023-07-13T13:01:02;10.20;;;10.10;;
2892;SDS011;1456;51.840;12.184;2023-07-13T13:03:35;9.80;;;9.70;;
2892;SDS011;1456;51.840;12.184;2023-07-13T13:06:04;11.17;;;10.97;;
2892;SDS011;1456;51.840;12.184;2023-07-13T13:08:47;10.93;;;10.73;;
2892;SDS011;1456;51.840;12.184;2023-07-13T13:11:15;10.60;;;10.50;;
2892;SDS011;1456;51.840;12.184;2023-07-13T13:13:41;11.80;;;11.50;;
2892;SDS011;1456;51.840;12.184;2023-07-13T13:16:12;11.40;;;11.20;;
2892;SDS011;1456;51.840;12.184;2023-07-13T13:19:13;10.80;;;10.60;;
2892;SDS011;1456;51.840;12.184;2023-07-13T13:21:42;10.83;;;10.63;;
2892;SDS011;1456;51.840;12.184;2023-07-13T13:24:14;11.23;;;10.93;;
2892;SDS011;1456;51.840;12.184;2023-07-13T13:26:42;11.53;;;11.33;;
2892;SDS011;1456;51.840;12.184;2023-07-13T13:29:14;10.90;;;10.70;;
2892;SDS011;1456;51.840;12.184;2023-07-13T13:31:46;10.33;;;10.23;;
2892;SDS011;1456;51.840;12.184;2023-07-13T13:34:13;11.00;;;10.80;;
2892;SDS011;1456;51.840;12.184;2023-07-13T13:36:41;10.77;;;10.57;;
2892;SDS011;1456;51.840;12.184;2023-07-13T13:41:59;12.10;;;11.90;;
2892;SDS011;1456;51.840;12.184;2023-07-13T13:44:24;11.30;;;11.10;;
2892;SDS011;1456;51.840;12.184;2023-07-13T13:46:51;11.67;;;11.47;;
2892;SDS011;1456;51.840;12.184;2023-07-13T13:49:21;11.40;;;11.20;;
2892;SDS011;1456;51.840;12.184;2023-07-13T13:51:49;11.20;;;11.00;;
2892;SDS011;1456;51.840;12.184;2023-07-13T13:54:16;11.07;;;10.87;;
2892;SDS011;1456;51.840;12.184;2023-07-13T13:56:43;11.77;;;11.57;;
2892;SDS011;1456;51.840;12.184;2023-07-13T13:59:10;11.37;;;10.83;;
2892;SDS011;1456;51.840;12.184;2023-07-13T14:01:36;11.40;;;11.13;;
2892;SDS011;1456;51.840;12.184;2023-07-13T14:04:02;9.97;;;9.87;;
2892;SDS011;1456;51.840;12.184;2023-07-13T14:06:30;11.27;;;11.07;;
2892;SDS011;1456;51.840;12.184;2023-07-13T14:08:56;10.63;;;10.43;;
2892;SDS011;1456;51.840;12.184;2023-07-13T14:11:21;11.00;;;10.80;;
2892;SDS011;1456;51.840;12.184;2023-07-13T14:13:52;11.00;;;10.80;;
2892;SDS011;1456;51.840;12.184;2023-07-13T14:16:26;11.60;;;11.40;;
2892;SDS011;1456;51.840;12.184;2023-07-13T14:18:57;11.00;;;10.80;;
2892;SDS011;1456;51.840;12.184;2023-07-13T14:21:25;11.27;;;11.07;;
2892;SDS011;1456;51.840;12.184;2023-07-13T14:23:52;11.80;;;11.60;;
2892;SDS011;1456;51.840;12.184;2023-07-13T14:26:22;10.80;;;10.60;;
2892;SDS011;1456;51.840;12.184;2023-07-13T14:28:50;10.20;;;9.97;;
2892;SDS011;1456;51.840;12.184;2023-07-13T14:31:18;9.97;;;9.77;;
2892;SDS011;1456;51.840;12.184;2023-07-13T14:33:44;10.40;;;10.20;;
2892;SDS011;1456;51.840;12.184;2023-07-13T14:36:20;11.17;;;10.97;;
2892;SDS011;1456;51.840;12.184;2023-07-13T14:38:54;10.67;;;10.47;;
2892;SDS011;1456;51.840;12.184;2023-07-13T14:41:24;11.20;;;11.00;;
2892;SDS011;1456;51.840;12.184;2023-07-13T14:43:50;11.30;;;11.10;;
2892;SDS011;1456;51.840;12.184;2023-07-13T14:46:30;10.37;;;10.27;;
2892;SDS011;1456;51.840;12.184;2023-07-13T14:51:45;10.57;;;10.30;;
2892;SDS011;1456;51.840;12.184;2023-07-13T14:54:11;10.33;;;10.13;;
2892;SDS011;1456;51.840;12.184;2023-07-13T14:56:37;10.83;;;10.63;;
2892;SDS011;1456;51.840;12.184;2023-07-13T14:59:02;11.00;;;10.80;;
2892;SDS011;1456;51.840;12.184;2023-07-13T15:01:29;10.67;;;10.57;;
2892;SDS011;1456;51.840;12.184;2023-07-13T15:03:56;11.87;;;11.07;;
2892;SDS011;1456;51.840;12.184;2023-07-13T15:06:23;10.80;;;10.60;;
2892;SDS011;1456;51.840;12.184;2023-07-13T15:08:48;10.37;;;10.23;;
2892;SDS011;1456;51.840;12.184;2023-07-13T15:11:15;10.63;;;10.40;;
2892;SDS011;1456;51.840;12.184;2023-07-13T15:13:41;11.60;;;11.20;;
2892;SDS011;1456;51.840;12.184;2023-07-13T15:16:21;11.43;;;11.13;;
2892;SDS011;1456;51.840;12.184;2023-07-13T15:18:48;10.70;;;10.50;;
2892;SDS011;1456;51.840;12.184;2023-07-13T15:21:18;10.80;;;10.60;;
2892;SDS011;1456;51.840;12.184;2023-07-13T15:23:46;10.27;;;10.17;;
2892;SDS011;1456;51.840;12.184;2023-07-13T15:26:16;11.00;;;10.80;;
2892;SDS011;1456;51.840;12.184;2023-07-13T15:28:43;10.33;;;10.23;;
2892;SDS011;1456;51.840;12.184;2023-07-13T15:31:23;10.57;;;10.37;;
2892;SDS011;1456;51.840;12.184;2023-07-13T15:33:52;11.40;;;11.20;;
2892;SDS011;1456;51.840;12.184;2023-07-13T15:36:19;11.17;;;10.93;;
2892;SDS011;1456;51.840;12.184;2023-07-13T15:38:47;10.37;;;10.17;;
2892;SDS011;1456;51.840;12.184;2023-07-13T15:43:52;10.57;;;10.37;;
2892;SDS011;1456;51.840;12.184;2023-07-13T15:46:19;10.43;;;10.30;;
2892;SDS011;1456;51.840;12.184;2023-07-13T15:48:47;9.53;;;9.43;;
2892;SDS011;1456;51.840;12.184;2023-07-13T15:53:48;10.97;;;10.70;;
2892;SDS011;1456;51.840;12.184;2023-07-13T15:56:19;9.30;;;9.20;;
2892;SDS011;1456;51.840;12.184;2023-07-13T15:58:50;11.13;;;10.83;;
2892;SDS011;1456;51.840;12.184;2023-07-13T16:01:17;10.07;;;9.97;;